METAR Data

Data at: 0013 UTC 23 Mar 2019

METAR for:KEWR (Newark Intl, NJ, US)
Text:KEWR 222351Z 28017G24KT 10SM FEW040 SCT070 07/M02 A2948 RMK AO2 PK WND 28031/2339 SLP982 T00671017 10100 20067 53028
Temperature: 6.7°C ( 44°F)
Dewpoint: -1.7°C ( 29°F) [RH = 55%]
Pressure (altimeter):29.48 inches Hg ( 998.4 mb) [Sea level pressure: 998.2 mb]
Winds:from the W (280 degrees) at 20 MPH (17 knots; 8.7 m/s) gusting to 28 MPH (24 knots; 12.3 m/s)
Visibility:10 or more sm (16+ km)
Ceiling:at least 12,000 feet AGL
Clouds: few clouds at 4000 feet AGL, scattered clouds at 7000 feet AGL